Hlavní strana
METAR-TAF:

METAR-TAF

Letiště :

Vinnycja, Ukrajina

zeměpisná šířka: 49-14-23N, zeměpisná délka: 028-36-50E, výška: 974 m

Aktuální stav počasí

Zpráva byla vytvořena před 5 hodinami a 7 minutami, v 18:00 UTC
Jihovýchodní vítr 12 kt
Teplota 10°C
Vlhkost vzduchu 87%
Tlak 1020 hPa
Viditelnost 10 km a více

METAR: UKWW 121800Z 14006MPS 9999 NSC 10/08 Q1020 R13/0///65 NOSIG

Čas: 01:07 (23:07 UTC)

Předpověď počasí

Zpráva byla vytvořena před 5 hodinami a 57 minutami, v 17:10 UTC
Předpověď platná od 12 v 18 UTC do 13 v 03 UTC
Jihovýchodní vítr 16 kt s nárazy do 25 kt
Viditelnost: 4000 m
Oblačno až skoro zataženo ve výšce 1000 ft
kouřmo

TAF: UKWW 121710Z 1218/1303 13008G13MPS 4000 BR BKN010

Stav a předpovědi počasí z více než 4 000 letišť (zprávy METAR a TAF).

Červené a žluté tečky na mapě představují dostupné meteorologické stanice.

Když kurzor umístíte na tečku, zobrazí se název stanice.

Pak kliknutím zobrazíte stav a předpověď počasí.

Chcete-li změnit mapu, kliknutím na zelené tlačítko se znaménkem +mapu přiblížíte, kliknutím na zelené tlačítko se znaménkem – mapu oddálíte a kliknutím na zelené šipky přejdete na sousední mapy.


METAR-TAF: